createdAt,value
2022-12-06T00:01:44.372Z,5.87
2022-12-06T00:04:14.663Z,5.83
2022-12-06T00:06:45.009Z,5.74
2022-12-06T00:09:20.872Z,5.79
2022-12-06T00:11:48.414Z,5.77
2022-12-06T00:14:16.315Z,5.69
2022-12-06T00:16:44.197Z,5.72
2022-12-06T00:19:13.946Z,5.73
2022-12-06T00:21:42.090Z,5.70
2022-12-06T00:24:12.458Z,5.71
2022-12-06T00:26:42.496Z,5.71
2022-12-06T00:29:22.411Z,5.63
2022-12-06T00:31:50.339Z,5.49
2022-12-06T00:34:18.127Z,5.43
2022-12-06T00:36:45.675Z,5.35
2022-12-06T00:39:15.314Z,5.28
2022-12-06T00:41:43.623Z,5.21
2022-12-06T00:44:11.699Z,5.18
2022-12-06T00:46:39.619Z,5.11
2022-12-06T00:49:09.063Z,5.17
2022-12-06T00:51:37.925Z,5.14
2022-12-06T00:54:06.574Z,5.11
2022-12-06T00:56:36.109Z,5.13
2022-12-06T00:59:04.013Z,5.14
2022-12-06T01:01:33.716Z,5.10
2022-12-06T01:04:04.434Z,5.15
2022-12-06T01:06:33.523Z,5.11
2022-12-06T01:09:04.910Z,5.08
2022-12-06T01:11:32.347Z,5.11
2022-12-06T01:14:00.049Z,5.17
2022-12-06T01:16:30.602Z,5.30
2022-12-06T01:19:03.195Z,5.30
2022-12-06T01:21:31.555Z,5.41
2022-12-06T01:23:59.619Z,5.36
2022-12-06T01:26:30.116Z,5.40
2022-12-06T01:28:59.201Z,5.37
2022-12-06T01:31:33.690Z,5.43
2022-12-06T01:34:06.579Z,5.43
2022-12-06T01:36:34.108Z,5.37
2022-12-06T01:39:06.605Z,5.25
2022-12-06T01:41:34.565Z,5.17
2022-12-06T01:44:02.727Z,5.13
2022-12-06T01:46:44.507Z,5.09
2022-12-06T01:49:12.126Z,5.15
2022-12-06T01:51:54.199Z,5.16
2022-12-06T01:54:24.389Z,5.15
2022-12-06T01:56:53.977Z,5.24
2022-12-06T01:59:23.428Z,5.22
2022-12-06T02:01:51.875Z,5.29
2022-12-06T02:04:19.731Z,5.30
2022-12-06T02:06:47.823Z,5.40
2022-12-06T02:09:17.058Z,5.39
2022-12-06T02:11:45.980Z,5.46
2022-12-06T02:14:18.195Z,5.39
2022-12-06T02:16:48.864Z,5.39
2022-12-06T02:19:19.177Z,5.46
2022-12-06T02:22:11.187Z,5.56
2022-12-06T02:25:06.329Z,5.57
2022-12-06T02:27:52.087Z,5.63
2022-12-06T02:30:53.439Z,5.63
2022-12-06T02:33:30.119Z,5.59
2022-12-06T02:36:36.199Z,5.56
2022-12-06T02:39:11.967Z,5.52
2022-12-06T02:41:45.649Z,5.51
2022-12-06T02:44:21.178Z,5.47
2022-12-06T02:46:51.393Z,5.49
2022-12-06T02:49:20.987Z,5.49
2022-12-06T02:51:50.103Z,5.50
2022-12-06T02:54:19.036Z,5.48
2022-12-06T02:56:46.795Z,5.49
2022-12-06T02:59:14.247Z,5.55
2022-12-06T03:01:46.620Z,5.47
2022-12-06T03:04:49.881Z,5.49
2022-12-06T03:07:26.076Z,5.50
2022-12-06T03:10:15.154Z,5.48
2022-12-06T03:13:16.765Z,5.49
2022-12-06T03:16:00.156Z,5.31
2022-12-06T03:19:00.494Z,5.37
2022-12-06T03:21:39.096Z,5.40
2022-12-06T03:24:10.915Z,5.44
2022-12-06T03:26:39.340Z,5.47
2022-12-06T03:29:10.466Z,5.51
2022-12-06T03:31:41.838Z,5.52
2022-12-06T03:34:15.301Z,5.42
2022-12-06T03:36:45.011Z,5.45
2022-12-06T03:39:19.283Z,5.57
2022-12-06T03:41:53.367Z,5.64
2022-12-06T03:44:21.714Z,5.73
2022-12-06T03:46:54.495Z,5.78
2022-12-06T03:49:33.220Z,5.85
2022-12-06T03:52:00.830Z,5.88
2022-12-06T03:54:28.618Z,5.96
2022-12-06T03:56:56.118Z,5.92
2022-12-06T03:59:23.599Z,5.95
2022-12-06T04:01:51.341Z,5.98
2022-12-06T04:04:19.175Z,6.02
2022-12-06T04:06:46.699Z,6.09
2022-12-06T04:09:33.787Z,6.15
2022-12-06T04:12:01.574Z,6.06
2022-12-06T04:14:32.492Z,6.10
2022-12-06T04:17:18.632Z,6.09
2022-12-06T04:19:51.815Z,6.06
2022-12-06T04:22:38.061Z,6.10
2022-12-06T04:25:06.190Z,6.12
2022-12-06T04:27:52.126Z,6.14
2022-12-06T04:30:38.452Z,6.16
2022-12-06T04:33:24.899Z,6.22
2022-12-06T04:36:15.007Z,6.19
2022-12-06T04:38:42.703Z,6.22
2022-12-06T04:41:33.191Z,6.21
2022-12-06T04:44:00.574Z,6.22
2022-12-06T04:46:28.469Z,6.26
2022-12-06T04:48:56.107Z,6.22
2022-12-06T04:51:24.112Z,6.13
2022-12-06T04:53:52.185Z,6.05
2022-12-06T04:56:19.686Z,6.03
2022-12-06T04:58:47.180Z,5.92
2022-12-06T05:01:14.905Z,5.86
2022-12-06T05:03:44.363Z,5.83
2022-12-06T05:06:12.163Z,5.82
2022-12-06T05:08:40.072Z,5.88
2022-12-06T05:11:07.470Z,5.92
2022-12-06T05:13:35.998Z,5.88
2022-12-06T05:16:05.783Z,5.88
2022-12-06T05:18:34.291Z,5.98
2022-12-06T05:21:12.759Z,6.01
2022-12-06T05:23:40.893Z,6.01
2022-12-06T05:26:12.122Z,5.99
2022-12-06T05:28:40.171Z,5.96
2022-12-06T05:31:08.320Z,6.03
2022-12-06T05:33:36.734Z,6.12
2022-12-06T05:36:13.994Z,6.12
2022-12-06T05:38:41.440Z,6.16
2022-12-06T05:41:09.719Z,6.17
2022-12-06T05:43:37.240Z,6.19
2022-12-06T05:46:05.385Z,6.28
2022-12-06T05:48:33.366Z,6.27
2022-12-06T05:51:00.833Z,6.32
2022-12-06T05:53:28.502Z,6.32
2022-12-06T05:55:56.272Z,6.32
2022-12-06T05:58:23.729Z,6.36
2022-12-06T06:00:51.598Z,6.33
2022-12-06T06:03:19.414Z,6.26
2022-12-06T06:05:49.947Z,6.25
2022-12-06T06:08:18.384Z,6.25
2022-12-06T06:10:46.398Z,6.21
2022-12-06T06:13:13.734Z,6.06
2022-12-06T06:15:41.175Z,6.09
2022-12-06T06:18:08.891Z,6.13
2022-12-06T06:20:36.414Z,6.09
2022-12-06T06:23:03.952Z,6.12
2022-12-06T06:25:31.732Z,6.17
2022-12-06T06:27:59.143Z,6.13
2022-12-06T06:30:26.554Z,6.14
2022-12-06T06:32:54.196Z,6.13
2022-12-06T06:35:21.747Z,6.17
2022-12-06T06:37:49.161Z,6.12
2022-12-06T06:40:16.974Z,6.17
2022-12-06T06:42:44.380Z,6.20
2022-12-06T06:45:11.820Z,6.24
2022-12-06T06:47:39.909Z,6.17
2022-12-06T06:50:08.386Z,6.04
2022-12-06T06:52:35.858Z,6.11
2022-12-06T06:55:03.820Z,6.14
2022-12-06T06:57:31.242Z,6.13
2022-12-06T06:59:58.977Z,6.16
2022-12-06T07:02:26.854Z,6.20
2022-12-06T07:04:54.311Z,6.16
2022-12-06T07:07:21.720Z,6.11
2022-12-06T07:09:49.466Z,6.10
2022-12-06T07:12:16.994Z,6.20
2022-12-06T07:14:44.444Z,6.23
2022-12-06T07:17:12.278Z,6.30
2022-12-06T07:19:39.714Z,6.28
2022-12-06T07:22:07.079Z,6.25
2022-12-06T07:24:41.314Z,6.29
2022-12-06T07:27:09.749Z,6.24
2022-12-06T07:29:38.437Z,6.22
2022-12-06T07:32:06.116Z,6.24
2022-12-06T07:34:33.578Z,6.24
2022-12-06T07:37:01.264Z,6.27
2022-12-06T07:39:28.703Z,6.30
2022-12-06T07:42:15.055Z,6.27
2022-12-06T07:45:02.244Z,6.25
2022-12-06T07:47:42.406Z,6.25
2022-12-06T07:50:18.086Z,6.25
2022-12-06T07:52:47.790Z,6.24
2022-12-06T07:55:16.626Z,6.26
2022-12-06T07:57:44.534Z,6.24
2022-12-06T08:00:15.160Z,6.25
2022-12-06T08:02:43.512Z,6.26
2022-12-06T08:05:10.967Z,6.24
2022-12-06T08:07:38.972Z,6.25
2022-12-06T08:10:07.517Z,6.25
2022-12-06T08:12:35.007Z,6.23
2022-12-06T08:15:02.373Z,6.24
2022-12-06T08:17:30.594Z,6.24
2022-12-06T08:19:58.308Z,6.26
2022-12-06T08:22:25.903Z,6.30
2022-12-06T08:24:53.675Z,6.28
2022-12-06T08:27:21.130Z,6.30
2022-12-06T08:29:48.617Z,6.16
2022-12-06T08:32:16.508Z,6.22
2022-12-06T08:34:44.461Z,6.32
2022-12-06T08:37:12.473Z,6.34
2022-12-06T08:39:40.229Z,6.41
2022-12-06T08:42:08.185Z,6.36
2022-12-06T08:44:36.503Z,6.39
2022-12-06T08:47:04.639Z,6.46
2022-12-06T08:49:32.426Z,6.48
2022-12-06T08:52:00.470Z,6.58
2022-12-06T08:54:28.609Z,6.62
2022-12-06T08:56:56.102Z,6.64
2022-12-06T08:59:24.136Z,6.76
2022-12-06T09:01:52.068Z,6.84
2022-12-06T09:04:19.792Z,6.90
2022-12-06T09:06:47.438Z,6.97
2022-12-06T09:09:17.590Z,7.01
2022-12-06T09:11:46.294Z,7.06
2022-12-06T09:14:21.498Z,7.05
2022-12-06T09:16:51.439Z,7.10
2022-12-06T09:19:19.897Z,7.04
2022-12-06T09:21:47.454Z,7.06
2022-12-06T09:24:16.876Z,7.07
2022-12-06T09:26:44.675Z,7.09
2022-12-06T09:29:12.327Z,7.07
2022-12-06T09:31:41.090Z,7.05
2022-12-06T09:34:10.039Z,6.99
2022-12-06T09:36:54.130Z,6.98
2022-12-06T09:39:30.015Z,7.01
2022-12-06T09:42:33.732Z,7.00
2022-12-06T09:45:24.834Z,7.03
2022-12-06T09:48:10.367Z,7.09
2022-12-06T09:50:41.371Z,7.17
2022-12-06T09:53:42.208Z,7.34
2022-12-06T09:56:22.127Z,7.60
2022-12-06T09:59:14.983Z,7.74
2022-12-06T10:01:48.882Z,7.81
2022-12-06T10:04:44.115Z,7.90
2022-12-06T10:07:44.166Z,7.87
2022-12-06T10:10:31.890Z,8.60
2022-12-06T10:13:18.976Z,9.23
2022-12-06T10:15:57.531Z,9.75
2022-12-06T10:18:43.610Z,9.82
2022-12-06T10:21:37.211Z,10.01
2022-12-06T10:24:31.762Z,9.96
2022-12-06T10:27:12.416Z,9.78
2022-12-06T10:30:01.816Z,10.19
2022-12-06T10:32:48.547Z,10.57
2022-12-06T10:35:24.419Z,11.16
2022-12-06T10:37:58.071Z,11.08
2022-12-06T10:40:31.222Z,10.76
2022-12-06T10:43:14.433Z,10.65
2022-12-06T10:46:09.116Z,10.64
2022-12-06T10:48:43.415Z,11.20
2022-12-06T10:51:34.694Z,11.69
2022-12-06T10:54:13.285Z,11.81
2022-12-06T10:56:43.353Z,11.93
2022-12-06T10:59:28.220Z,12.19
2022-12-06T11:02:00.683Z,12.31
2022-12-06T11:04:39.263Z,12.51
2022-12-06T11:07:15.356Z,12.24
2022-12-06T11:09:51.515Z,12.01
2022-12-06T11:12:25.233Z,11.47
2022-12-06T11:15:14.193Z,11.75
2022-12-06T11:17:45.302Z,11.93
2022-12-06T11:20:22.893Z,11.85
2022-12-06T11:23:17.692Z,11.73
2022-12-06T11:25:57.358Z,11.74
2022-12-06T11:28:41.952Z,11.66
2022-12-06T11:31:28.309Z,10.83
2022-12-06T11:33:58.143Z,11.15
2022-12-06T11:36:26.435Z,11.21
2022-12-06T11:38:53.916Z,10.89
2022-12-06T11:41:26.249Z,10.68
2022-12-06T11:43:55.141Z,10.37
2022-12-06T11:46:23.300Z,10.28
2022-12-06T11:48:51.308Z,10.16
2022-12-06T11:51:23.323Z,10.10
2022-12-06T11:54:05.745Z,10.01
2022-12-06T11:56:37.207Z,9.97
2022-12-06T11:59:26.979Z,9.93
2022-12-06T12:01:57.875Z,9.87
2022-12-06T12:04:45.964Z,9.84
2022-12-06T12:07:18.502Z,9.76
2022-12-06T12:09:52.995Z,9.64
2022-12-06T12:12:23.378Z,9.61
2022-12-06T12:14:56.066Z,9.52
2022-12-06T12:17:28.670Z,9.39
2022-12-06T12:20:20.503Z,9.34
2022-12-06T12:23:00.199Z,9.28
2022-12-06T12:25:31.891Z,9.26
2022-12-06T12:28:01.445Z,9.22
2022-12-06T12:30:39.875Z,9.20
2022-12-06T12:33:07.324Z,9.16
2022-12-06T12:35:44.995Z,9.17
2022-12-06T12:38:24.697Z,9.09
2022-12-06T12:41:00.104Z,9.05
2022-12-06T12:43:31.961Z,9.02
2022-12-06T12:46:17.825Z,8.96
2022-12-06T12:48:47.811Z,8.94
2022-12-06T12:51:31.908Z,8.82
2022-12-06T12:54:03.641Z,8.79
2022-12-06T12:56:37.374Z,8.76
2022-12-06T12:59:14.847Z,8.74
2022-12-06T13:01:56.157Z,8.70
2022-12-06T13:05:17.182Z,8.66
2022-12-06T13:07:46.859Z,8.61
2022-12-06T13:10:36.658Z,8.63
2022-12-06T13:13:14.271Z,8.61
2022-12-06T13:15:51.061Z,8.58
2022-12-06T13:18:58.237Z,8.59
2022-12-06T13:21:25.799Z,8.57
2022-12-06T13:24:04.030Z,8.57
2022-12-06T13:26:44.500Z,8.56
2022-12-06T13:29:40.131Z,8.56
2022-12-06T13:32:20.725Z,8.56
2022-12-06T13:34:57.022Z,8.54
2022-12-06T13:37:43.852Z,8.52
2022-12-06T13:40:33.541Z,8.43
2022-12-06T13:43:28.641Z,8.47
2022-12-06T13:46:15.097Z,8.43
2022-12-06T13:48:52.951Z,8.41
2022-12-06T13:51:32.859Z,8.41
2022-12-06T13:54:06.085Z,8.39
2022-12-06T13:56:33.771Z,8.39
2022-12-06T13:59:11.212Z,8.38
2022-12-06T14:01:49.638Z,8.37
2022-12-06T14:06:57.042Z,8.34
2022-12-06T14:09:26.006Z,8.26
2022-12-06T14:11:53.531Z,8.26
2022-12-06T14:14:23.719Z,8.24
2022-12-06T14:17:05.476Z,8.17
2022-12-06T14:19:48.222Z,8.22
2022-12-06T14:22:25.133Z,8.16
2022-12-06T14:25:20.950Z,8.14
2022-12-06T14:27:52.008Z,8.11
2022-12-06T14:30:25.649Z,8.04
2022-12-06T14:32:56.135Z,8.05
2022-12-06T14:35:26.089Z,8.01
2022-12-06T14:37:59.550Z,7.96
2022-12-06T14:40:50.500Z,7.91
2022-12-06T14:43:20.181Z,7.85
2022-12-06T14:45:48.468Z,7.81
2022-12-06T14:48:16.266Z,7.79
2022-12-06T14:50:50.449Z,7.75
2022-12-06T14:53:31.919Z,7.66
2022-12-06T14:56:02.570Z,7.63
2022-12-06T14:58:45.367Z,7.55
2022-12-06T15:01:21.094Z,7.55
2022-12-06T15:04:06.873Z,7.54
2022-12-06T15:06:36.911Z,7.39
2022-12-06T15:09:14.807Z,7.30
2022-12-06T15:12:02.109Z,7.21
2022-12-06T15:14:47.559Z,7.19
2022-12-06T15:17:21.835Z,7.11
2022-12-06T15:19:51.855Z,6.87
2022-12-06T15:22:26.669Z,6.82
2022-12-06T15:24:57.464Z,6.72
2022-12-06T15:27:27.985Z,6.64
2022-12-06T15:29:55.601Z,6.55
2022-12-06T15:32:25.657Z,6.49
2022-12-06T15:34:53.373Z,6.45
2022-12-06T15:37:39.378Z,6.38
2022-12-06T15:40:08.676Z,6.38
2022-12-06T15:42:36.237Z,6.39
2022-12-06T15:45:04.172Z,6.31
2022-12-06T15:47:32.066Z,6.29
2022-12-06T15:49:59.728Z,6.15
2022-12-06T15:52:28.071Z,6.02
2022-12-06T15:54:55.786Z,5.81
2022-12-06T15:57:23.262Z,5.82
2022-12-06T15:59:50.719Z,5.90
2022-12-06T16:02:19.221Z,5.90
2022-12-06T16:04:50.524Z,5.91
2022-12-06T16:07:19.244Z,5.86
2022-12-06T16:09:47.804Z,5.84
2022-12-06T16:12:15.250Z,5.75
2022-12-06T16:14:42.818Z,5.61
2022-12-06T16:17:10.651Z,5.47
2022-12-06T16:19:57.053Z,5.47
2022-12-06T16:22:44.733Z,5.39
2022-12-06T16:25:12.193Z,5.36
2022-12-06T16:27:39.945Z,5.36
2022-12-06T16:30:08.078Z,5.32
2022-12-06T16:32:35.512Z,5.22
2022-12-06T16:35:03.573Z,5.27
2022-12-06T16:37:31.295Z,5.21
2022-12-06T16:39:58.763Z,5.11
2022-12-06T16:42:26.455Z,5.09
2022-12-06T16:44:53.908Z,4.92
2022-12-06T16:49:49.330Z,4.99
2022-12-06T16:52:17.561Z,4.92
2022-12-06T16:54:45.270Z,4.87
2022-12-06T16:57:13.435Z,4.77
2022-12-06T16:59:42.423Z,4.71
2022-12-06T17:02:30.778Z,4.67
2022-12-06T17:05:06.261Z,4.75
2022-12-06T17:07:39.155Z,4.75
2022-12-06T17:10:07.979Z,4.73
2022-12-06T17:12:35.550Z,4.75
2022-12-06T17:15:03.569Z,4.76
2022-12-06T17:17:31.653Z,4.68
2022-12-06T17:19:59.116Z,4.67
2022-12-06T17:22:26.610Z,4.61
2022-12-06T17:24:54.415Z,4.55
2022-12-06T17:27:22.218Z,4.33
2022-12-06T17:29:49.689Z,4.14
2022-12-06T17:32:18.289Z,3.94
2022-12-06T17:34:45.724Z,3.99
2022-12-06T17:37:13.263Z,3.90
2022-12-06T17:39:41.067Z,3.79
2022-12-06T17:42:29.219Z,3.82
2022-12-06T17:44:57.944Z,3.80
2022-12-06T17:47:25.625Z,3.74
2022-12-06T17:49:54.287Z,3.70
2022-12-06T17:52:22.547Z,3.61
2022-12-06T17:54:49.950Z,3.53
2022-12-06T17:57:18.585Z,3.49
2022-12-06T17:59:48.066Z,3.51
2022-12-06T18:02:19.031Z,3.55
2022-12-06T18:04:48.106Z,3.65
2022-12-06T18:07:17.623Z,3.73
2022-12-06T18:09:46.295Z,3.64
2022-12-06T18:12:15.630Z,3.52
2022-12-06T18:14:43.602Z,3.56
2022-12-06T18:17:11.534Z,3.50
2022-12-06T18:19:40.905Z,3.40
2022-12-06T18:22:08.975Z,3.44
2022-12-06T18:24:36.662Z,3.41
2022-12-06T18:27:06.125Z,3.38
2022-12-06T18:29:34.585Z,3.49
2022-12-06T18:32:02.282Z,3.55
2022-12-06T18:34:30.343Z,3.62
2022-12-06T18:36:57.891Z,3.55
2022-12-06T18:39:25.507Z,3.46
2022-12-06T18:41:54.514Z,3.35
2022-12-06T18:44:22.530Z,3.21
2022-12-06T18:46:50.142Z,3.24
2022-12-06T18:49:17.993Z,3.22
2022-12-06T18:51:45.595Z,3.17
2022-12-06T18:54:14.147Z,3.02
2022-12-06T18:56:42.434Z,2.98
2022-12-06T18:59:11.807Z,3.07
2022-12-06T19:01:40.239Z,2.99
2022-12-06T19:04:14.316Z,3.01
2022-12-06T19:06:43.524Z,2.92
2022-12-06T19:09:14.939Z,2.90
2022-12-06T19:11:46.187Z,2.79
2022-12-06T19:14:15.202Z,2.63
2022-12-06T19:16:46.036Z,2.54
2022-12-06T19:19:19.487Z,2.60
2022-12-06T19:21:47.591Z,2.58
2022-12-06T19:24:20.163Z,2.50
2022-12-06T19:26:50.554Z,2.49
2022-12-06T19:29:18.974Z,2.54
2022-12-06T19:31:46.722Z,2.66
2022-12-06T19:34:17.087Z,2.73
2022-12-06T19:36:45.042Z,2.82
2022-12-06T19:39:14.028Z,2.75
2022-12-06T19:42:00.992Z,2.74
2022-12-06T19:44:29.417Z,2.68
2022-12-06T19:46:58.278Z,2.66
2022-12-06T19:49:27.304Z,2.69
2022-12-06T19:51:55.737Z,2.67
2022-12-06T19:54:26.126Z,2.69
2022-12-06T19:56:55.337Z,2.67
2022-12-06T19:59:26.567Z,2.61
2022-12-06T20:01:54.800Z,2.61
2022-12-06T20:04:25.273Z,2.68
2022-12-06T20:06:53.735Z,2.84
2022-12-06T20:09:23.371Z,2.86
2022-12-06T20:12:04.131Z,2.87
2022-12-06T20:14:45.711Z,2.95
2022-12-06T20:17:23.836Z,3.05
2022-12-06T20:19:51.413Z,3.19
2022-12-06T20:22:19.906Z,3.28
2022-12-06T20:24:48.379Z,3.33
2022-12-06T20:27:16.147Z,3.31
2022-12-06T20:29:43.934Z,3.27
2022-12-06T20:32:11.672Z,3.28
2022-12-06T20:34:39.223Z,3.42
2022-12-06T20:37:07.046Z,3.41
2022-12-06T20:39:35.931Z,3.29
2022-12-06T20:42:06.218Z,3.21
2022-12-06T20:44:34.925Z,3.16
2022-12-06T20:47:02.462Z,3.23
2022-12-06T20:49:30.137Z,3.26
2022-12-06T20:51:59.703Z,3.32
2022-12-06T20:54:27.138Z,3.31
2022-12-06T20:56:54.587Z,3.24
2022-12-06T20:59:22.426Z,3.28
2022-12-06T21:01:50.275Z,3.33
2022-12-06T21:04:20.027Z,3.36
2022-12-06T21:06:47.758Z,3.24
2022-12-06T21:09:15.266Z,3.19
2022-12-06T21:11:42.699Z,3.23
2022-12-06T21:14:13.123Z,3.24
2022-12-06T21:16:42.435Z,3.07
2022-12-06T21:19:17.009Z,2.98
2022-12-06T21:21:47.187Z,2.89
2022-12-06T21:24:17.887Z,2.91
2022-12-06T21:26:45.736Z,2.79
2022-12-06T21:29:19.042Z,2.77
2022-12-06T21:31:46.814Z,2.69
2022-12-06T21:34:15.374Z,2.53
2022-12-06T21:36:43.181Z,2.50
2022-12-06T21:39:13.705Z,2.51
2022-12-06T21:41:41.588Z,2.69
2022-12-06T21:44:09.773Z,2.78
2022-12-06T21:46:37.741Z,2.70
2022-12-06T21:49:05.282Z,2.58
2022-12-06T21:51:32.768Z,2.69
2022-12-06T21:54:01.612Z,2.53
2022-12-06T21:56:30.689Z,2.47
2022-12-06T21:59:01.216Z,2.34
2022-12-06T22:01:30.710Z,2.31
2022-12-06T22:04:01.568Z,2.29
2022-12-06T22:06:29.136Z,2.40
2022-12-06T22:08:58.534Z,2.35
2022-12-06T22:11:26.379Z,2.36
2022-12-06T22:13:54.007Z,2.32
2022-12-06T22:16:21.563Z,2.33
2022-12-06T22:18:49.411Z,2.24
2022-12-06T22:21:20.039Z,2.12
2022-12-06T22:23:48.304Z,1.98
2022-12-06T22:26:21.418Z,2.03
2022-12-06T22:28:49.586Z,1.91
2022-12-06T22:31:22.582Z,1.97
2022-12-06T22:33:51.393Z,1.88
2022-12-06T22:36:20.802Z,1.95
2022-12-06T22:38:50.116Z,2.03
2022-12-06T22:41:18.890Z,2.05
2022-12-06T22:43:50.187Z,2.10
2022-12-06T22:46:18.016Z,2.00
2022-12-06T22:48:46.521Z,2.00
2022-12-06T22:51:20.201Z,1.91
2022-12-06T22:53:52.722Z,1.76
2022-12-06T22:56:20.846Z,1.80
2022-12-06T22:58:48.966Z,1.82
2022-12-06T23:01:18.939Z,1.80
2022-12-06T23:03:48.290Z,1.76
2022-12-06T23:06:18.246Z,1.68
2022-12-06T23:08:46.028Z,1.76
2022-12-06T23:11:16.685Z,1.80
2022-12-06T23:13:44.536Z,1.70
2022-12-06T23:16:14.578Z,1.65
2022-12-06T23:18:42.882Z,1.69
2022-12-06T23:21:17.089Z,1.56
2022-12-06T23:23:48.681Z,1.44
2022-12-06T23:26:24.883Z,1.54
2022-12-06T23:28:53.374Z,1.55
2022-12-06T23:31:27.244Z,1.47
2022-12-06T23:33:57.101Z,1.50
2022-12-06T23:36:27.063Z,1.49
2022-12-06T23:38:54.885Z,1.52
2022-12-06T23:41:30.496Z,1.42
2022-12-06T23:43:59.212Z,1.48
2022-12-06T23:46:30.024Z,1.46
2022-12-06T23:48:58.278Z,1.37
2022-12-06T23:51:28.683Z,1.42
2022-12-06T23:53:58.054Z,1.36
2022-12-06T23:56:28.773Z,1.37
2022-12-06T23:58:56.898Z,1.32
